createdAt,value
2022-11-16T13:14:00.998Z,26.67
2022-11-16T13:16:29.468Z,30.60
2022-11-16T13:18:58.617Z,26.02
2022-11-16T13:21:35.868Z,31.77
2022-11-16T13:24:27.495Z,27.73
2022-11-16T13:27:18.808Z,26.80
2022-11-16T13:29:59.431Z,32.70
2022-11-16T13:32:32.494Z,26.98
2022-11-16T13:35:01.751Z,35.38
2022-11-16T13:37:38.444Z,34.83
2022-11-16T13:40:05.729Z,39.08
2022-11-16T13:42:43.843Z,39.47
2022-11-16T13:45:22.269Z,34.55
2022-11-16T13:47:55.091Z,36.15
2022-11-16T13:50:33.034Z,37.17
2022-11-16T13:54:25.056Z,35.53
2022-11-16T13:56:18.091Z,39.58
2022-11-16T13:58:52.051Z,43.58
2022-11-16T14:01:19.448Z,45.30
2022-11-16T14:03:49.112Z,39.78
2022-11-16T14:06:19.234Z,40.58
2022-11-16T14:08:50.790Z,39.67
2022-11-16T14:11:39.128Z,36.03
2022-11-16T14:14:10.998Z,38.80
2022-11-16T14:16:51.642Z,39.30
2022-11-16T14:19:44.678Z,39.15
2022-11-16T14:22:36.296Z,39.83
2022-11-16T14:25:14.698Z,38.55
2022-11-16T14:27:54.385Z,29.60
2022-11-16T14:30:30.475Z,25.25
2022-11-16T14:32:58.946Z,20.65
2022-11-16T14:35:31.882Z,16.10
2022-11-16T14:38:05.189Z,13.55
2022-11-16T14:40:56.255Z,11.32
2022-11-16T14:43:41.925Z,8.93
2022-11-16T14:46:36.237Z,10.30
2022-11-16T14:49:04.014Z,8.10
2022-11-16T14:51:43.146Z,6.80
2022-11-16T14:54:33.078Z,6.47
2022-11-16T14:57:02.903Z,6.22
2022-11-16T14:59:31.482Z,6.22
2022-11-16T15:02:05.253Z,8.90
2022-11-16T15:04:32.815Z,6.78
2022-11-16T15:07:04.577Z,7.50
2022-11-16T15:09:41.975Z,8.02
2022-11-16T15:12:36.803Z,8.57
2022-11-16T15:15:08.268Z,10.55
2022-11-16T15:17:35.662Z,8.32
2022-11-16T15:20:24.912Z,8.65
2022-11-16T15:22:53.856Z,8.65
2022-11-16T15:25:24.574Z,9.50
2022-11-16T15:27:52.005Z,11.48
2022-11-16T15:30:21.707Z,11.82
2022-11-16T15:32:50.688Z,11.80
2022-11-16T15:35:34.091Z,13.68
2022-11-16T15:38:17.958Z,14.07
2022-11-16T15:43:15.822Z,17.38
2022-11-16T15:45:44.127Z,14.52
2022-11-16T15:48:22.301Z,17.45
2022-11-16T15:50:57.909Z,15.85
2022-11-16T15:53:34.199Z,15.18
2022-11-16T15:56:02.627Z,14.23
2022-11-16T15:58:36.549Z,14.35
2022-11-16T16:01:04.063Z,13.30
2022-11-16T16:03:35.106Z,12.50
2022-11-16T16:06:03.027Z,12.63
2022-11-16T16:08:38.223Z,15.15
2022-11-16T16:11:13.053Z,16.10
2022-11-16T16:13:42.072Z,14.68
2022-11-16T16:16:29.845Z,13.88
2022-11-16T16:19:09.295Z,15.38
2022-11-16T16:21:46.294Z,14.07
2022-11-16T16:24:35.141Z,15.63
2022-11-16T16:27:02.190Z,17.13
2022-11-16T16:29:29.268Z,16.90
2022-11-16T16:31:56.521Z,20.38
2022-11-16T16:34:23.790Z,20.80
2022-11-16T16:36:50.952Z,22.88
2022-11-16T16:39:17.888Z,20.90
2022-11-16T16:41:45.136Z,23.33
2022-11-16T16:44:16.118Z,28.60
2022-11-16T16:46:43.191Z,23.58
2022-11-16T16:49:10.083Z,26.20
2022-11-16T16:51:37.470Z,25.23
2022-11-16T16:54:04.522Z,26.92
2022-11-16T16:56:31.441Z,27.25
2022-11-16T16:58:59.495Z,31.63
2022-11-16T17:01:26.895Z,29.80
2022-11-16T17:03:53.821Z,29.70
2022-11-16T17:06:21.534Z,32.17
2022-11-16T17:08:48.990Z,32.58
2022-11-16T17:11:18.489Z,34.28
2022-11-16T17:13:45.609Z,35.83
2022-11-16T17:16:13.072Z,35.40
2022-11-16T17:18:40.220Z,34.58
2022-11-16T17:21:11.807Z,36.65
2022-11-16T17:23:39.098Z,37.05
2022-11-16T17:26:08.615Z,35.10
2022-11-16T17:28:35.812Z,39.17
2022-11-16T17:31:04.649Z,36.00
2022-11-16T17:33:38.874Z,35.78
2022-11-16T17:36:07.716Z,37.33
2022-11-16T17:38:35.717Z,34.60
2022-11-16T17:41:09.194Z,36.53
2022-11-16T17:43:37.007Z,36.85
2022-11-16T17:46:18.961Z,35.88
2022-11-16T17:48:47.682Z,33.13
2022-11-16T17:51:17.775Z,35.67
2022-11-16T17:53:45.307Z,35.53
2022-11-16T17:56:15.313Z,36.20
2022-11-16T17:58:46.948Z,36.15
2022-11-16T18:01:15.052Z,35.50
2022-11-16T18:03:42.729Z,37.00
2022-11-16T18:06:15.389Z,38.35
2022-11-16T18:08:43.951Z,38.93
2022-11-16T18:11:15.247Z,38.03
2022-11-16T18:13:44.163Z,37.58
2022-11-16T18:16:17.663Z,43.63
2022-11-16T18:18:46.610Z,40.58
2022-11-16T18:21:20.336Z,43.55
2022-11-16T18:23:48.573Z,40.10
2022-11-16T18:26:19.339Z,45.00
2022-11-16T18:28:47.771Z,44.40
2022-11-16T18:31:19.348Z,44.67
2022-11-16T18:33:46.802Z,44.08
2022-11-16T18:36:14.204Z,42.40
2022-11-16T18:38:41.592Z,38.95
2022-11-16T18:41:12.083Z,44.53
2022-11-16T18:43:54.287Z,45.80
2022-11-16T18:46:25.666Z,46.33
2022-11-16T18:48:53.571Z,47.90
2022-11-16T18:51:22.537Z,44.67
2022-11-16T18:53:50.395Z,53.15
2022-11-16T18:56:19.447Z,50.55
2022-11-16T18:58:51.878Z,59.47
2022-11-16T19:01:22.524Z,51.97
2022-11-16T19:03:50.732Z,51.20
2022-11-16T19:06:18.280Z,65.32
2022-11-16T19:08:54.994Z,53.08
2022-11-16T19:11:24.392Z,53.97
2022-11-16T19:13:59.893Z,51.45
2022-11-16T19:16:27.874Z,59.38
2022-11-16T19:18:55.191Z,60.90
2022-11-16T19:21:22.871Z,61.60
2022-11-16T19:23:53.200Z,61.08
2022-11-16T19:26:24.152Z,59.30
2022-11-16T19:28:53.158Z,54.13
2022-11-16T19:31:21.835Z,55.85
2022-11-16T19:33:53.285Z,59.83
2022-11-16T19:36:20.465Z,66.68
2022-11-16T19:38:49.124Z,65.97
2022-11-16T19:41:18.434Z,70.32
2022-11-16T19:43:45.922Z,67.38
2022-11-16T19:46:18.795Z,67.80
2022-11-16T19:48:49.988Z,63.33
2022-11-16T19:51:28.099Z,71.38
2022-11-16T19:53:55.950Z,68.50
2022-11-16T19:56:25.998Z,70.75
2022-11-16T19:58:53.370Z,70.75
2022-11-16T20:01:24.422Z,68.57
2022-11-16T20:03:52.350Z,66.93
2022-11-16T20:06:27.274Z,68.35
2022-11-16T20:08:56.932Z,77.40
2022-11-16T20:11:25.826Z,76.45
2022-11-16T20:13:55.150Z,78.45
2022-11-16T20:16:26.588Z,81.57
2022-11-16T20:18:55.461Z,78.78
2022-11-16T20:21:22.864Z,76.38
2022-11-16T20:23:52.283Z,79.82
2022-11-16T20:26:21.035Z,86.88
2022-11-16T20:28:52.884Z,76.85
2022-11-16T20:31:26.104Z,82.35
2022-11-16T20:33:59.161Z,86.65
2022-11-16T20:36:30.952Z,81.32
2022-11-16T20:38:59.910Z,82.47
2022-11-16T20:41:29.955Z,91.50
2022-11-16T20:43:59.311Z,78.25
2022-11-16T20:46:29.381Z,76.13
2022-11-16T20:48:57.806Z,77.93
2022-11-16T20:51:25.580Z,76.20
2022-11-16T20:53:53.337Z,70.47
2022-11-16T20:56:21.564Z,66.05
2022-11-16T20:58:50.247Z,66.35
2022-11-16T21:01:23.274Z,63.03
2022-11-16T21:03:50.496Z,64.47
2022-11-16T21:06:17.688Z,58.40
2022-11-16T21:08:45.098Z,61.72
2022-11-16T21:11:17.580Z,60.65
2022-11-16T21:14:07.206Z,61.78
2022-11-16T21:16:35.122Z,60.20
2022-11-16T21:19:03.096Z,61.40
2022-11-16T21:21:30.899Z,65.30
2022-11-16T21:23:58.720Z,62.05
2022-11-16T21:26:28.182Z,56.22
2022-11-16T21:28:56.766Z,54.15
2022-11-16T21:31:27.546Z,58.72
2022-11-16T21:33:55.061Z,57.25
2022-11-16T21:36:24.607Z,60.15
2022-11-16T21:38:52.787Z,64.30
2022-11-16T21:41:22.090Z,66.72
2022-11-16T21:43:50.028Z,65.78
2022-11-16T21:46:22.988Z,65.75
2022-11-16T21:48:51.421Z,70.30
2022-11-16T21:51:21.036Z,71.60
2022-11-16T21:53:49.002Z,72.85
2022-11-16T21:56:18.611Z,72.00
2022-11-16T21:58:46.783Z,77.03
2022-11-16T22:01:16.427Z,69.20
2022-11-16T22:03:45.173Z,70.40
2022-11-16T22:06:33.327Z,72.57
2022-11-16T22:09:01.144Z,70.30
2022-11-16T22:11:28.451Z,68.03
2022-11-16T22:13:55.864Z,73.85
2022-11-16T22:16:23.753Z,74.82
2022-11-16T22:18:51.221Z,72.32
2022-11-16T22:21:18.736Z,73.05
2022-11-16T22:23:45.987Z,72.43
2022-11-16T22:26:16.051Z,67.13
2022-11-16T22:28:43.262Z,73.97
2022-11-16T22:31:13.242Z,73.28
2022-11-16T22:33:41.259Z,75.47
2022-11-16T22:36:10.596Z,72.85
2022-11-16T22:38:38.059Z,79.30
2022-11-16T22:41:05.973Z,66.72
2022-11-16T22:43:33.837Z,72.43
2022-11-16T22:46:04.899Z,66.15
2022-11-16T22:48:37.773Z,62.85
2022-11-16T22:51:07.865Z,66.15
2022-11-16T22:53:35.520Z,65.43
2022-11-16T22:56:08.995Z,66.25
2022-11-16T22:58:37.536Z,61.03
2022-11-16T23:01:06.485Z,62.50
2022-11-16T23:03:34.857Z,63.10
2022-11-16T23:06:02.737Z,65.28
2022-11-16T23:08:30.034Z,66.32
2022-11-16T23:11:27.380Z,61.35
2022-11-16T23:14:13.745Z,61.50
2022-11-16T23:16:41.955Z,67.85
2022-11-16T23:19:29.080Z,64.47
2022-11-16T23:22:15.571Z,65.45
2022-11-16T23:25:01.785Z,64.95
2022-11-16T23:27:51.707Z,68.20
2022-11-16T23:30:19.123Z,70.20
2022-11-16T23:32:46.526Z,71.28
2022-11-16T23:35:14.093Z,70.50
2022-11-16T23:38:01.870Z,72.03
2022-11-16T23:40:35.015Z,65.75
2022-11-16T23:43:20.694Z,73.38
2022-11-16T23:45:48.214Z,71.80
2022-11-16T23:48:17.372Z,69.72
2022-11-16T23:50:46.187Z,65.55
2022-11-16T23:53:13.647Z,67.43
2022-11-16T23:55:41.221Z,72.35
2022-11-16T23:58:14.272Z,71.10
